createdAt,value
2023-04-16T00:01:48.503Z,3.17
2023-04-16T00:04:15.656Z,2.92
2023-04-16T00:06:42.636Z,2.90
2023-04-16T00:09:09.792Z,2.53
2023-04-16T00:11:36.781Z,2.40
2023-04-16T00:14:03.508Z,2.70
2023-04-16T00:16:30.356Z,2.55
2023-04-16T00:18:57.058Z,3.22
2023-04-16T00:21:23.862Z,2.60
2023-04-16T00:23:50.652Z,2.80
2023-04-16T00:26:17.391Z,2.72
2023-04-16T00:28:45.284Z,2.45
2023-04-16T00:31:11.980Z,2.72
2023-04-16T00:33:38.678Z,2.72
2023-04-16T00:36:05.608Z,2.13
2023-04-16T00:38:32.514Z,2.70
2023-04-16T00:40:59.352Z,2.67
2023-04-16T00:43:26.989Z,2.42
2023-04-16T00:45:56.210Z,2.70
2023-04-16T00:48:23.443Z,2.50
2023-04-16T00:50:50.765Z,2.63
2023-04-16T00:53:17.667Z,2.67
2023-04-16T00:55:44.674Z,2.40
2023-04-16T00:58:11.615Z,2.67
2023-04-16T01:00:38.325Z,3.40
2023-04-16T01:03:05.398Z,3.10
2023-04-16T01:05:32.312Z,3.00
2023-04-16T01:08:01.068Z,3.28
2023-04-16T01:10:28.017Z,3.30
2023-04-16T01:12:54.679Z,3.80
2023-04-16T01:15:21.405Z,3.60
2023-04-16T01:17:48.564Z,4.07
2023-04-16T01:20:15.562Z,3.95
2023-04-16T01:22:42.679Z,4.18
2023-04-16T01:25:14.386Z,4.07
2023-04-16T01:27:41.109Z,3.72
2023-04-16T01:30:08.430Z,3.60
2023-04-16T01:32:54.431Z,3.80
2023-04-16T01:35:21.176Z,3.95
2023-04-16T01:37:50.358Z,4.03
2023-04-16T01:40:17.961Z,3.55
2023-04-16T01:42:44.885Z,4.13
2023-04-16T01:45:12.070Z,4.35
2023-04-16T01:47:38.988Z,4.80
2023-04-16T01:50:06.416Z,5.28
2023-04-16T01:52:33.105Z,4.50
2023-04-16T01:54:59.808Z,4.95
2023-04-16T01:57:26.851Z,4.60
2023-04-16T01:59:53.634Z,5.38
2023-04-16T02:02:25.486Z,4.82
2023-04-16T02:04:52.185Z,4.85
2023-04-16T02:07:18.951Z,5.93
2023-04-16T02:09:45.693Z,5.63
2023-04-16T02:12:12.352Z,5.28
2023-04-16T02:14:39.135Z,5.90
2023-04-16T02:17:06.109Z,6.65
2023-04-16T02:19:37.766Z,6.82
2023-04-16T02:22:04.840Z,6.63
2023-04-16T02:24:31.556Z,6.65
2023-04-16T02:26:59.738Z,7.78
2023-04-16T02:29:26.507Z,7.55
2023-04-16T02:32:03.239Z,7.65
2023-04-16T02:34:31.499Z,7.53
2023-04-16T02:36:58.322Z,7.13
2023-04-16T02:39:25.320Z,7.15
2023-04-16T02:41:53.273Z,8.02
2023-04-16T02:44:20.499Z,8.20
2023-04-16T02:46:47.961Z,7.40
2023-04-16T02:49:14.659Z,8.35
2023-04-16T02:51:41.300Z,9.13
2023-04-16T02:54:07.949Z,9.05
2023-04-16T02:56:34.639Z,9.05
2023-04-16T02:59:01.384Z,9.18
2023-04-16T03:01:28.970Z,8.85
2023-04-16T03:03:55.759Z,9.43
2023-04-16T03:06:22.513Z,9.05
2023-04-16T03:08:50.347Z,8.55
2023-04-16T03:11:17.506Z,9.10
2023-04-16T03:13:44.203Z,8.63
2023-04-16T03:16:11.058Z,9.38
2023-04-16T03:18:37.821Z,9.73
2023-04-16T03:21:05.041Z,10.20
2023-04-16T03:23:32.082Z,10.27
2023-04-16T03:25:58.927Z,9.98
2023-04-16T03:28:26.214Z,10.90
2023-04-16T03:30:53.789Z,9.95
2023-04-16T03:33:21.188Z,10.98
2023-04-16T03:35:54.549Z,9.55
2023-04-16T03:38:21.253Z,10.43
2023-04-16T03:40:47.950Z,10.30
2023-04-16T03:43:15.315Z,10.10
2023-04-16T03:45:46.820Z,9.05
2023-04-16T03:48:13.647Z,9.45
2023-04-16T03:50:40.369Z,9.40
2023-04-16T03:53:09.123Z,10.15
2023-04-16T03:55:36.350Z,9.52
2023-04-16T03:58:04.777Z,9.60
2023-04-16T04:00:32.593Z,9.68
2023-04-16T04:03:12.196Z,9.48
2023-04-16T04:05:42.700Z,10.02
2023-04-16T04:08:11.238Z,10.50
2023-04-16T04:10:38.285Z,10.25
2023-04-16T04:13:07.173Z,11.18
2023-04-16T04:15:35.060Z,11.25
2023-04-16T04:18:01.793Z,10.50
2023-04-16T04:20:28.722Z,11.27
2023-04-16T04:22:55.504Z,12.40
2023-04-16T04:25:25.363Z,10.88
2023-04-16T04:27:52.325Z,12.27
2023-04-16T04:30:19.139Z,11.60
2023-04-16T04:32:46.159Z,11.38
2023-04-16T04:35:13.250Z,9.88
2023-04-16T04:37:41.583Z,10.60
2023-04-16T04:40:14.317Z,10.70
2023-04-16T04:42:41.075Z,11.35
2023-04-16T04:45:08.740Z,10.85
2023-04-16T04:47:35.861Z,10.40
2023-04-16T04:50:02.826Z,10.57
2023-04-16T04:52:30.225Z,10.40
2023-04-16T04:54:57.213Z,11.77
2023-04-16T04:57:23.970Z,10.23
2023-04-16T04:59:53.972Z,11.20
2023-04-16T05:02:20.943Z,10.52
2023-04-16T05:04:47.881Z,10.25
2023-04-16T05:07:14.584Z,11.93
2023-04-16T05:09:41.385Z,11.02
2023-04-16T05:12:08.363Z,11.20
2023-04-16T05:14:36.171Z,11.38
2023-04-16T05:17:02.974Z,11.85
2023-04-16T05:19:29.801Z,12.30
2023-04-16T05:21:56.593Z,11.55
2023-04-16T05:24:23.462Z,11.20
2023-04-16T05:26:50.171Z,12.20
2023-04-16T05:29:16.965Z,12.05
2023-04-16T05:31:43.717Z,11.75
2023-04-16T05:34:11.008Z,12.52
2023-04-16T05:36:37.711Z,12.35
2023-04-16T05:39:04.466Z,12.15
2023-04-16T05:41:31.192Z,10.80
2023-04-16T05:43:58.061Z,11.80
2023-04-16T05:46:24.883Z,10.80
2023-04-16T05:48:51.804Z,11.13
2023-04-16T05:51:18.680Z,11.70
2023-04-16T05:53:48.301Z,13.48
2023-04-16T05:56:15.066Z,12.52
2023-04-16T05:58:41.755Z,11.90
2023-04-16T06:01:08.503Z,12.10
2023-04-16T06:03:35.340Z,12.77
2023-04-16T06:06:02.192Z,13.20
2023-04-16T06:08:28.909Z,12.10
2023-04-16T06:10:56.606Z,13.60
2023-04-16T06:13:23.341Z,11.98
2023-04-16T06:15:50.031Z,11.35
2023-04-16T06:18:16.833Z,12.52
2023-04-16T06:20:43.598Z,13.20
2023-04-16T06:23:10.754Z,11.70
2023-04-16T06:25:37.481Z,12.18
2023-04-16T06:28:04.297Z,11.85
2023-04-16T06:30:33.700Z,12.77
2023-04-16T06:33:00.480Z,12.77
2023-04-16T06:35:27.168Z,12.77
2023-04-16T06:37:53.847Z,13.07
2023-04-16T06:40:20.552Z,14.32
2023-04-16T06:42:47.250Z,13.25
2023-04-16T06:45:14.130Z,13.60
2023-04-16T06:47:41.110Z,14.38
2023-04-16T06:50:08.335Z,12.27
2023-04-16T06:52:35.494Z,13.75
2023-04-16T06:55:02.552Z,12.63
2023-04-16T06:57:30.695Z,14.05
2023-04-16T06:59:57.336Z,14.02
2023-04-16T07:02:24.409Z,13.80
2023-04-16T07:04:52.351Z,13.23
2023-04-16T07:07:19.102Z,14.00
2023-04-16T07:09:45.771Z,13.00
2023-04-16T07:12:13.253Z,13.10
2023-04-16T07:14:40.053Z,13.13
2023-04-16T07:17:06.765Z,14.88
2023-04-16T07:19:33.501Z,15.45
2023-04-16T07:22:00.565Z,14.60
2023-04-16T07:24:27.345Z,16.55
2023-04-16T07:26:54.042Z,15.13
2023-04-16T07:29:20.872Z,16.38
2023-04-16T07:31:47.729Z,17.52
2023-04-16T07:34:15.800Z,16.42
2023-04-16T07:36:42.522Z,15.93
2023-04-16T07:39:10.836Z,15.52
2023-04-16T07:41:37.913Z,16.10
2023-04-16T07:44:04.778Z,14.65
2023-04-16T07:46:45.718Z,13.50
2023-04-16T07:49:14.690Z,13.30
2023-04-16T07:51:41.470Z,14.20
2023-04-16T07:54:08.166Z,13.02
2023-04-16T07:56:34.865Z,12.57
2023-04-16T07:59:14.484Z,13.80
2023-04-16T08:01:48.428Z,13.60
2023-04-16T08:04:17.443Z,12.32
2023-04-16T08:06:44.332Z,13.23
2023-04-16T08:09:11.312Z,12.90
2023-04-16T08:11:38.223Z,14.40
2023-04-16T08:14:05.090Z,13.65
2023-04-16T08:16:31.883Z,12.88
2023-04-16T08:19:00.908Z,12.38
2023-04-16T08:21:28.502Z,11.93
2023-04-16T08:23:55.439Z,12.60
2023-04-16T08:26:22.498Z,11.05
2023-04-16T08:28:49.553Z,11.20
2023-04-16T08:31:16.362Z,9.93
2023-04-16T08:33:43.292Z,8.80
2023-04-16T08:36:10.153Z,8.88
2023-04-16T08:38:36.857Z,9.32
2023-04-16T08:41:06.529Z,9.85
2023-04-16T08:43:36.687Z,9.82
2023-04-16T08:46:05.782Z,8.57
2023-04-16T08:48:34.459Z,9.80
2023-04-16T08:51:02.462Z,9.20
2023-04-16T08:53:53.220Z,8.50
2023-04-16T08:56:23.024Z,8.73
2023-04-16T08:58:51.125Z,8.40
2023-04-16T09:01:19.683Z,7.82
2023-04-16T09:03:48.462Z,7.20
2023-04-16T09:06:16.712Z,7.50
2023-04-16T09:08:46.597Z,7.30
2023-04-16T09:11:19.845Z,7.20
2023-04-16T09:13:47.547Z,7.18
2023-04-16T09:16:14.901Z,6.75
2023-04-16T09:18:41.815Z,7.22
2023-04-16T09:21:11.063Z,6.88
2023-04-16T09:23:38.728Z,6.63
2023-04-16T09:26:06.056Z,6.45
2023-04-16T09:28:43.429Z,6.28
2023-04-16T09:31:12.748Z,6.97
2023-04-16T09:33:39.675Z,7.35
2023-04-16T09:36:07.553Z,7.50
2023-04-16T09:38:52.204Z,7.82
2023-04-16T09:41:19.757Z,6.35
2023-04-16T09:44:05.400Z,6.85
2023-04-16T09:46:43.098Z,6.20
2023-04-16T09:49:18.568Z,6.07
2023-04-16T09:51:49.544Z,7.32
2023-04-16T09:54:16.433Z,7.32
2023-04-16T09:56:46.064Z,6.68
2023-04-16T09:59:20.406Z,5.88
2023-04-16T10:01:49.506Z,6.22
2023-04-16T10:04:17.286Z,6.75
2023-04-16T10:06:44.594Z,6.35
2023-04-16T10:09:11.450Z,6.35
2023-04-16T10:11:38.294Z,7.30
2023-04-16T10:14:05.366Z,6.88
2023-04-16T10:16:33.610Z,7.63
2023-04-16T10:19:00.465Z,7.72
2023-04-16T10:21:33.685Z,6.55
2023-04-16T10:24:01.166Z,7.15
2023-04-16T10:26:30.513Z,7.32
2023-04-16T10:28:58.883Z,6.60
2023-04-16T10:31:27.267Z,7.03
2023-04-16T10:33:54.679Z,7.20
2023-04-16T10:36:26.744Z,8.40
2023-04-16T10:38:58.185Z,9.23
2023-04-16T10:41:26.902Z,8.57
2023-04-16T10:44:03.210Z,9.43
2023-04-16T10:46:34.947Z,9.15
2023-04-16T10:49:03.428Z,10.30
2023-04-16T10:51:32.417Z,10.07
2023-04-16T10:54:03.837Z,9.00
2023-04-16T10:56:33.002Z,10.27
2023-04-16T10:58:59.874Z,8.65
2023-04-16T11:01:32.241Z,8.88
2023-04-16T11:07:06.281Z,9.07
2023-04-16T11:10:03.150Z,8.98
2023-04-16T11:12:29.940Z,9.40
2023-04-16T11:15:14.303Z,9.45
2023-04-16T11:17:45.632Z,9.90
2023-04-16T11:20:21.438Z,10.32
2023-04-16T11:22:49.788Z,10.23
2023-04-16T11:25:37.960Z,10.65
2023-04-16T11:28:04.776Z,10.80
2023-04-16T11:30:41.529Z,10.20
2023-04-16T11:33:11.174Z,10.07
2023-04-16T11:35:41.628Z,10.13
2023-04-16T11:38:08.584Z,10.30
2023-04-16T11:40:36.467Z,10.27
2023-04-16T11:43:14.943Z,10.25
2023-04-16T11:45:58.508Z,10.63
2023-04-16T11:48:25.371Z,10.50
2023-04-16T11:50:58.860Z,10.15
2023-04-16T11:53:28.175Z,10.73
2023-04-16T11:56:28.335Z,12.52
2023-04-16T11:59:15.503Z,10.98
2023-04-16T12:01:49.550Z,10.68
2023-04-16T12:04:19.180Z,10.52
2023-04-16T12:07:04.631Z,14.45
2023-04-16T12:09:42.137Z,12.90
2023-04-16T12:12:31.149Z,12.00
2023-04-16T12:15:03.720Z,12.18
2023-04-16T12:17:32.926Z,11.10
2023-04-16T12:20:06.153Z,11.25
2023-04-16T12:22:36.779Z,13.85
2023-04-16T12:25:17.852Z,11.73
2023-04-16T12:27:53.739Z,10.55
2023-04-16T12:30:22.585Z,12.02
2023-04-16T12:32:51.514Z,10.00
2023-04-16T12:35:32.529Z,10.75
2023-04-16T12:38:03.558Z,9.38
2023-04-16T12:40:30.684Z,8.50
2023-04-16T12:42:57.760Z,9.20
2023-04-16T12:45:25.142Z,9.52
2023-04-16T12:47:52.138Z,8.48
2023-04-16T12:50:18.885Z,9.50
2023-04-16T12:52:54.416Z,8.70
2023-04-16T12:55:21.271Z,9.07
2023-04-16T12:57:49.376Z,8.25
2023-04-16T13:00:16.355Z,8.15
2023-04-16T13:05:37.475Z,9.95
2023-04-16T13:08:04.485Z,10.25
2023-04-16T13:10:31.326Z,9.50
2023-04-16T13:12:58.178Z,9.57
2023-04-16T13:15:24.974Z,10.48
2023-04-16T13:17:51.950Z,9.85
2023-04-16T13:20:18.772Z,11.32
2023-04-16T13:22:45.778Z,10.15
2023-04-16T13:28:18.338Z,10.80
2023-04-16T13:31:05.052Z,11.15
2023-04-16T13:33:32.498Z,11.18
2023-04-16T13:35:59.421Z,10.95
2023-04-16T13:41:22.805Z,13.93
2023-04-16T13:44:06.399Z,13.27
2023-04-16T13:46:33.929Z,13.20
2023-04-16T13:49:07.260Z,13.02
2023-04-16T13:51:34.204Z,12.18
2023-04-16T13:54:02.300Z,12.75
2023-04-16T13:56:29.178Z,13.52
2023-04-16T13:58:56.180Z,13.02
2023-04-16T14:01:23.396Z,12.52
2023-04-16T14:03:50.361Z,12.30
2023-04-16T14:06:18.267Z,11.98
2023-04-16T14:08:45.774Z,11.68
2023-04-16T14:11:12.500Z,11.25
2023-04-16T14:13:39.279Z,11.30
2023-04-16T14:16:06.309Z,10.00
2023-04-16T14:18:33.270Z,10.40
2023-04-16T14:21:02.083Z,9.50
2023-04-16T14:23:31.782Z,8.70
2023-04-16T14:25:58.549Z,10.05
2023-04-16T14:28:25.617Z,9.18
2023-04-16T14:30:52.336Z,11.77
2023-04-16T14:33:19.126Z,10.60
2023-04-16T14:35:46.056Z,9.52
2023-04-16T14:38:12.866Z,9.00
2023-04-16T14:40:39.565Z,9.23
2023-04-16T14:43:06.216Z,9.85
2023-04-16T14:45:33.130Z,9.82
2023-04-16T14:47:59.977Z,10.45
2023-04-16T14:50:27.001Z,10.05
2023-04-16T14:52:54.572Z,10.63
2023-04-16T14:55:21.642Z,9.63
2023-04-16T14:57:48.403Z,9.85
2023-04-16T15:00:17.547Z,10.32
2023-04-16T15:02:44.981Z,8.70
2023-04-16T15:05:11.896Z,9.23
2023-04-16T15:07:42.166Z,9.65
2023-04-16T15:10:10.852Z,9.13
2023-04-16T15:12:38.298Z,9.95
2023-04-16T15:15:08.925Z,11.77
2023-04-16T15:17:35.801Z,9.68
2023-04-16T15:20:06.441Z,8.65
2023-04-16T15:22:36.171Z,12.57
2023-04-16T15:25:03.275Z,9.45
2023-04-16T15:27:30.529Z,9.27
2023-04-16T15:29:57.220Z,10.88
2023-04-16T15:32:24.227Z,9.00
2023-04-16T15:34:51.018Z,9.40
2023-04-16T15:37:17.740Z,9.50
2023-04-16T15:39:44.596Z,9.40
2023-04-16T15:42:11.714Z,9.85
2023-04-16T15:44:38.365Z,9.70
2023-04-16T15:49:32.980Z,11.57
2023-04-16T15:52:00.315Z,11.38
2023-04-16T15:54:27.191Z,11.75
2023-04-16T15:56:53.984Z,12.40
2023-04-16T15:59:20.709Z,11.07
2023-04-16T16:01:47.518Z,11.40
2023-04-16T16:04:14.451Z,11.65
2023-04-16T16:06:41.758Z,11.73
2023-04-16T16:09:09.005Z,12.07
2023-04-16T16:11:37.914Z,11.15
2023-04-16T16:14:04.675Z,10.63
2023-04-16T16:16:32.607Z,10.05
2023-04-16T16:18:59.448Z,11.38
2023-04-16T16:21:26.511Z,10.70
2023-04-16T16:23:53.688Z,10.90
2023-04-16T16:26:22.826Z,11.50
2023-04-16T16:28:49.647Z,11.82
2023-04-16T16:31:16.750Z,11.98
2023-04-16T16:33:43.475Z,11.60
2023-04-16T16:36:11.853Z,12.10
2023-04-16T16:38:40.731Z,12.05
2023-04-16T16:41:07.952Z,12.38
2023-04-16T16:43:37.754Z,12.18
2023-04-16T16:46:07.141Z,10.82
2023-04-16T16:48:33.890Z,12.63
2023-04-16T16:51:03.906Z,13.00
2023-04-16T16:53:30.698Z,12.98
2023-04-16T16:55:57.596Z,12.18
2023-04-16T16:58:24.317Z,14.48
2023-04-16T17:00:51.044Z,14.07
2023-04-16T17:03:17.852Z,13.10
2023-04-16T17:05:47.613Z,13.93
2023-04-16T17:08:14.930Z,16.95
2023-04-16T17:10:43.536Z,15.60
2023-04-16T17:13:10.508Z,14.40
2023-04-16T17:15:37.236Z,14.77
2023-04-16T17:18:04.180Z,17.13
2023-04-16T17:20:32.405Z,13.52
2023-04-16T17:22:59.401Z,13.15
2023-04-16T17:25:26.178Z,16.10
2023-04-16T17:27:52.918Z,13.43
2023-04-16T17:30:19.814Z,12.43
2023-04-16T17:32:46.630Z,13.18
2023-04-16T17:35:14.971Z,12.40
2023-04-16T17:37:41.692Z,13.25
2023-04-16T17:40:09.836Z,13.07
2023-04-16T17:42:37.125Z,12.75
2023-04-16T17:45:04.147Z,12.23
2023-04-16T17:47:31.006Z,12.23
2023-04-16T17:49:57.835Z,13.05
2023-04-16T17:52:24.753Z,13.75
2023-04-16T17:54:53.680Z,13.40
2023-04-16T17:57:20.406Z,13.30
2023-04-16T17:59:47.138Z,13.75
2023-04-16T18:02:14.004Z,14.07
2023-04-16T18:04:40.983Z,13.63
2023-04-16T18:07:07.832Z,12.93
2023-04-16T18:09:34.530Z,13.65
2023-04-16T18:12:01.506Z,13.73
2023-04-16T18:14:28.440Z,12.55
2023-04-16T18:16:55.238Z,11.73
2023-04-16T18:19:21.997Z,13.05
2023-04-16T18:21:48.737Z,12.43
2023-04-16T18:24:15.841Z,13.68
2023-04-16T18:26:44.571Z,13.57
2023-04-16T18:29:13.994Z,14.23
2023-04-16T18:31:41.021Z,14.20
2023-04-16T18:34:07.876Z,13.85
2023-04-16T18:36:34.594Z,14.23
2023-04-16T18:39:15.642Z,14.20
2023-04-16T18:41:43.478Z,15.63
2023-04-16T18:44:10.894Z,14.02
2023-04-16T18:46:38.894Z,16.30
2023-04-16T18:49:05.908Z,15.68
2023-04-16T18:51:32.728Z,16.77
2023-04-16T18:53:59.556Z,15.00
2023-04-16T18:56:28.659Z,15.95
2023-04-16T18:58:55.394Z,17.33
2023-04-16T19:01:22.174Z,16.58
2023-04-16T19:03:49.134Z,17.45
2023-04-16T19:06:15.916Z,17.38
2023-04-16T19:08:42.851Z,18.95
2023-04-16T19:11:09.651Z,18.85
2023-04-16T19:13:37.988Z,17.77
2023-04-16T19:16:10.897Z,18.13
2023-04-16T19:18:38.784Z,17.27
2023-04-16T19:21:06.887Z,17.45
2023-04-16T19:23:33.625Z,18.52
2023-04-16T19:26:01.376Z,18.73
2023-04-16T19:28:28.395Z,16.92
2023-04-16T19:30:55.506Z,19.05
2023-04-16T19:33:22.260Z,18.40
2023-04-16T19:35:49.101Z,18.08
2023-04-16T19:38:15.752Z,18.60
2023-04-16T19:40:48.825Z,19.13
2023-04-16T19:43:15.642Z,18.85
2023-04-16T19:45:53.262Z,17.73
2023-04-16T19:48:20.661Z,19.08
2023-04-16T19:50:47.720Z,17.65
2023-04-16T19:53:17.147Z,18.63
2023-04-16T19:55:43.894Z,18.38
2023-04-16T19:58:10.758Z,18.58
2023-04-16T20:00:40.627Z,19.10
2023-04-16T20:03:07.367Z,19.73
2023-04-16T20:05:34.140Z,20.60
2023-04-16T20:08:00.948Z,20.55
2023-04-16T20:10:27.798Z,20.17
2023-04-16T20:12:54.507Z,20.48
2023-04-16T20:15:21.634Z,19.55
2023-04-16T20:17:48.436Z,19.70
2023-04-16T20:20:16.292Z,20.65
2023-04-16T20:22:43.463Z,22.50
2023-04-16T20:25:11.279Z,27.10
2023-04-16T20:27:37.970Z,21.63
2023-04-16T20:30:06.106Z,22.05
2023-04-16T20:32:33.040Z,20.90
2023-04-16T20:34:59.846Z,22.13
2023-04-16T20:37:28.654Z,22.70
2023-04-16T20:39:56.017Z,20.77
2023-04-16T20:42:23.211Z,22.17
2023-04-16T20:44:56.100Z,22.23
2023-04-16T20:47:22.994Z,20.60
2023-04-16T20:49:49.790Z,20.48
2023-04-16T20:52:16.866Z,21.25
2023-04-16T20:54:43.605Z,21.92
2023-04-16T20:57:10.274Z,21.30
2023-04-16T20:59:36.957Z,21.77
2023-04-16T21:02:04.016Z,22.50
2023-04-16T21:04:31.323Z,22.33
2023-04-16T21:06:58.141Z,22.15
2023-04-16T21:09:24.812Z,22.45
2023-04-16T21:11:51.508Z,23.60
2023-04-16T21:14:18.763Z,22.90
2023-04-16T21:16:45.449Z,23.73
2023-04-16T21:19:12.223Z,24.15
2023-04-16T21:21:39.071Z,23.77
2023-04-16T21:24:06.253Z,21.83
2023-04-16T21:26:32.958Z,23.42
2023-04-16T21:28:59.701Z,23.77
2023-04-16T21:31:26.635Z,22.50
2023-04-16T21:33:53.582Z,22.98
2023-04-16T21:36:20.392Z,22.75
2023-04-16T21:38:47.569Z,20.60
2023-04-16T21:41:14.412Z,21.55
2023-04-16T21:43:41.113Z,21.63
2023-04-16T21:46:07.794Z,20.40
2023-04-16T21:48:34.505Z,22.27
2023-04-16T21:51:06.316Z,20.83
2023-04-16T21:53:33.496Z,19.45
2023-04-16T21:56:00.247Z,18.90
2023-04-16T21:58:27.169Z,20.05
2023-04-16T22:00:54.014Z,19.33
2023-04-16T22:03:26.349Z,21.27
2023-04-16T22:06:02.704Z,20.90
2023-04-16T22:08:30.199Z,20.55
2023-04-16T22:10:58.849Z,18.63
2023-04-16T22:13:26.290Z,20.05
2023-04-16T22:15:53.387Z,21.48
2023-04-16T22:18:20.327Z,21.75
2023-04-16T22:20:50.904Z,22.00
2023-04-16T22:23:17.734Z,20.52
2023-04-16T22:25:45.795Z,22.40
2023-04-16T22:28:12.559Z,23.08
2023-04-16T22:30:39.283Z,22.20
2023-04-16T22:33:06.109Z,23.80
2023-04-16T22:35:33.076Z,24.92
2023-04-16T22:37:59.716Z,25.75
2023-04-16T22:40:26.401Z,24.30
2023-04-16T22:42:53.122Z,23.15
2023-04-16T22:45:19.824Z,24.50
2023-04-16T22:47:46.556Z,23.35
2023-04-16T22:50:13.357Z,24.38
2023-04-16T22:52:40.206Z,22.55
2023-04-16T22:55:07.483Z,22.95
2023-04-16T22:57:34.200Z,24.30
2023-04-16T23:00:01.087Z,22.40
2023-04-16T23:02:27.925Z,23.52
2023-04-16T23:04:54.627Z,23.83
2023-04-16T23:07:21.347Z,25.13
2023-04-16T23:09:47.980Z,24.70
2023-04-16T23:12:14.680Z,25.95
2023-04-16T23:14:45.749Z,26.55
2023-04-16T23:17:13.716Z,27.35
2023-04-16T23:19:40.523Z,25.85
2023-04-16T23:22:07.230Z,26.15
2023-04-16T23:24:33.959Z,24.73
2023-04-16T23:27:01.347Z,24.52
2023-04-16T23:29:28.096Z,26.98
2023-04-16T23:31:54.778Z,25.25
2023-04-16T23:34:21.678Z,26.08
2023-04-16T23:36:48.368Z,25.90
2023-04-16T23:39:15.363Z,27.30
2023-04-16T23:41:42.005Z,26.05
2023-04-16T23:44:08.721Z,26.20
2023-04-16T23:46:35.526Z,24.77
2023-04-16T23:49:02.296Z,24.38
2023-04-16T23:51:28.962Z,25.48
2023-04-16T23:53:55.735Z,26.23
2023-04-16T23:56:22.436Z,28.73
2023-04-16T23:58:49.131Z,26.80
